PWSweather.com
Personal Weather Stations
Station Observations
GEELONGWX1
Bell Post Hill, GeelongAU

Bell Post HillGeelongAU

Lat: -38.101, Lon: 144.326

Elevation: 204

Station Type: Davis Vantage Pro2

http://www.geelongweather.com

High Low Average
Temperature 81.6°F27.6°C 54.2°F12.3°C 66.3°F19.1°C
Dew Point 56.2°F13.4°C 50.0°F10.0°C 53.4°F11.9°C
Winds 11.5 mph 18.5 kmh Calm Calm 5.0 mph SE8.0 kmh SE
Wind Gusts 17.3 mph27.8 kmh -- 8.0 mph12.9 kmh
Humidity 87% 35% 65%
Pressure 30.26 in1024.7 mb 30.09 in1019.0 mb -
Precipitation 0.00 in0.0 mm - -
Hour Temp Dew Point Humidity Winds Wind Gusts Pressure Precip Precip Rate Daily Precip Total
12:00 AM 61.9°F16.6°C 55.7°F13.2°C 80% 1.2 mph SSW1.9 kmh SSW 5.8 mph9.3 kmh 30.09 in1019.0 mb - 0.00 in0.0 mm 0.00 in0.0 mm
12:10 AM 61.6°F16.4°C 55.4°F13.0°C 80% 1.2 mph SW1.9 kmh SW 2.3 mph3.7 kmh 30.09 in1019.0 mb - 0.00 in0.0 mm 0.00 in0.0 mm
12:20 AM 61.4°F16.3°C 55.5°F13.1°C 81% 3.5 mph SW5.6 kmh SW 3.5 mph5.6 kmh 30.09 in1019.0 mb - 0.00 in0.0 mm 0.00 in0.0 mm
12:30 AM 61.1°F16.2°C 55.2°F12.9°C 81% 2.3 mph SW3.7 kmh SW 3.5 mph5.6 kmh 30.09 in1019.0 mb - 0.00 in0.0 mm 0.00 in0.0 mm
12:40 AM 60.8°F16.0°C 54.9°F12.7°C 81% 4.6 mph S7.4 kmh S 5.8 mph9.3 kmh 30.09 in1019.0 mb - 0.00 in0.0 mm 0.00 in0.0 mm
12:50 AM 60.5°F15.8°C 55.0°F12.8°C 82% 4.6 mph SSW7.4 kmh SSW 9.2 mph14.8 kmh 30.10 in1019.3 mb - 0.00 in0.0 mm 0.00 in0.0 mm
01:00 AM 60.2°F15.7°C 54.7°F12.6°C 82% 2.3 mph S3.7 kmh S 6.9 mph11.1 kmh 30.10 in1019.3 mb - 0.00 in0.0 mm 0.00 in0.0 mm
01:10 AM 59.8°F15.4°C 54.3°F12.4°C 82% 3.5 mph S5.6 kmh S 4.6 mph7.4 kmh 30.11 in1019.6 mb - 0.00 in0.0 mm 0.00 in0.0 mm
01:20 AM 59.6°F15.3°C 54.1°F12.3°C 82% 1.2 mph S1.9 kmh S 2.3 mph3.7 kmh 30.11 in1019.6 mb - 0.00 in0.0 mm 0.00 in0.0 mm
01:30 AM 59.4°F15.2°C 53.9°F12.2°C 82% 2.3 mph S3.7 kmh S 3.5 mph5.6 kmh 30.11 in1019.6 mb - 0.00 in0.0 mm 0.00 in0.0 mm
01:40 AM 59.2°F15.1°C 54.0°F12.2°C 83% 2.3 mph S3.7 kmh S 2.3 mph3.7 kmh 30.12 in1020.0 mb - 0.00 in0.0 mm 0.00 in0.0 mm
01:50 AM 59.0°F15.0°C 53.9°F12.2°C 83% 2.3 mph S3.7 kmh S 3.5 mph5.6 kmh 30.12 in1020.0 mb - 0.00 in0.0 mm 0.00 in0.0 mm
02:00 AM 58.8°F14.9°C 53.7°F12.1°C 83% 2.3 mph S3.7 kmh S 3.5 mph5.6 kmh 30.12 in1020.0 mb - 0.00 in0.0 mm 0.00 in0.0 mm
02:10 AM 58.7°F14.8°C 53.5°F11.9°C 83% 4.6 mph SSW7.4 kmh SSW 6.9 mph11.1 kmh 30.12 in1020.0 mb - 0.00 in0.0 mm 0.00 in0.0 mm
02:20 AM 58.4°F14.7°C 53.3°F11.8°C 83% 3.5 mph S5.6 kmh S 6.9 mph11.1 kmh 30.12 in1020.0 mb - 0.00 in0.0 mm 0.00 in0.0 mm
02:30 AM 58.2°F14.6°C 53.1°F11.7°C 83% 1.2 mph S1.9 kmh S 2.3 mph3.7 kmh 30.12 in1020.0 mb - 0.00 in0.0 mm 0.00 in0.0 mm
02:40 AM 57.9°F14.4°C 52.8°F11.6°C 83% 2.3 mph S3.7 kmh S 3.5 mph5.6 kmh 30.12 in1020.0 mb - 0.00 in0.0 mm 0.00 in0.0 mm
02:50 AM 57.7°F14.3°C 52.9°F11.6°C 84% 4.6 mph S7.4 kmh S 8.1 mph13.0 kmh 30.12 in1020.0 mb - 0.00 in0.0 mm 0.00 in0.0 mm
03:00 AM 57.4°F14.1°C 52.6°F11.4°C 84% 6.9 mph S11.1 kmh S 11.5 mph18.5 kmh 30.12 in1020.0 mb - 0.00 in0.0 mm 0.00 in0.0 mm
03:10 AM 57.1°F13.9°C 52.3°F11.3°C 84% 5.8 mph S9.3 kmh S 6.9 mph11.1 kmh 30.11 in1019.6 mb - 0.00 in0.0 mm 0.00 in0.0 mm
03:20 AM 56.9°F13.8°C 52.1°F11.2°C 84% 4.6 mph S7.4 kmh S 6.9 mph11.1 kmh 30.12 in1020.0 mb - 0.00 in0.0 mm 0.00 in0.0 mm
03:30 AM 56.6°F13.7°C 51.8°F11.0°C 84% 3.5 mph S5.6 kmh S 6.9 mph11.1 kmh 30.12 in1020.0 mb - 0.00 in0.0 mm 0.00 in0.0 mm
03:40 AM 56.3°F13.5°C 51.9°F11.1°C 85% 5.8 mph S9.3 kmh S 8.1 mph13.0 kmh 30.12 in1020.0 mb - 0.00 in0.0 mm 0.00 in0.0 mm
03:50 AM 56.1°F13.4°C 51.7°F10.9°C 85% 4.6 mph S7.4 kmh S 6.9 mph11.1 kmh 30.13 in1020.3 mb - 0.00 in0.0 mm 0.00 in0.0 mm
04:00 AM 55.9°F13.3°C 51.5°F10.8°C 85% 6.9 mph S11.1 kmh S 10.4 mph16.7 kmh 30.12 in1020.0 mb - 0.00 in0.0 mm 0.00 in0.0 mm
04:10 AM 55.7°F13.2°C 51.3°F10.7°C 85% 5.8 mph S9.3 kmh S 10.4 mph16.7 kmh 30.13 in1020.3 mb - 0.00 in0.0 mm 0.00 in0.0 mm
04:20 AM 55.4°F13.0°C 51.0°F10.6°C 85% 6.9 mph S11.1 kmh S 10.4 mph16.7 kmh 30.13 in1020.3 mb - 0.00 in0.0 mm 0.00 in0.0 mm
04:30 AM 55.2°F12.9°C 50.8°F10.4°C 85% 4.6 mph S7.4 kmh S 8.1 mph13.0 kmh 30.13 in1020.3 mb - 0.00 in0.0 mm 0.00 in0.0 mm
04:40 AM 55.0°F12.8°C 50.6°F10.3°C 85% 5.8 mph S9.3 kmh S 6.9 mph11.1 kmh 30.14 in1020.7 mb - 0.00 in0.0 mm 0.00 in0.0 mm
04:50 AM 54.8°F12.7°C 50.4°F10.2°C 85% 3.5 mph S5.6 kmh S 3.5 mph5.6 kmh 30.14 in1020.7 mb - 0.00 in0.0 mm 0.00 in0.0 mm
05:00 AM 54.7°F12.6°C 50.3°F10.2°C 85% 4.6 mph S7.4 kmh S 6.9 mph11.1 kmh 30.14 in1020.7 mb - 0.00 in0.0 mm 0.00 in0.0 mm
05:10 AM 54.5°F12.5°C 50.1°F10.1°C 85% 3.5 mph S5.6 kmh S 4.6 mph7.4 kmh 30.14 in1020.7 mb - 0.00 in0.0 mm 0.00 in0.0 mm
05:20 AM 54.4°F12.4°C 50.0°F10.0°C 85% 3.5 mph S5.6 kmh S 3.5 mph5.6 kmh 30.14 in1020.7 mb - 0.00 in0.0 mm 0.00 in0.0 mm
05:30 AM 54.3°F12.4°C 50.2°F10.1°C 86% 3.5 mph S5.6 kmh S 3.5 mph5.6 kmh 30.15 in1021.0 mb - 0.00 in0.0 mm 0.00 in0.0 mm
05:40 AM 54.2°F12.3°C 50.1°F10.1°C 86% 3.5 mph SW5.6 kmh SW 5.8 mph9.3 kmh 30.15 in1021.0 mb - 0.00 in0.0 mm 0.00 in0.0 mm
05:50 AM 54.3°F12.4°C 50.2°F10.1°C 86% 3.5 mph SW5.6 kmh SW 4.6 mph7.4 kmh 30.15 in1021.0 mb - 0.00 in0.0 mm 0.00 in0.0 mm
06:00 AM 54.6°F12.6°C 50.5°F10.3°C 86% 2.3 mph SSW3.7 kmh SSW 8.1 mph13.0 kmh 30.16 in1021.3 mb - 0.00 in0.0 mm 0.00 in0.0 mm
06:10 AM 55.0°F12.8°C 51.2°F10.7°C 87% 4.6 mph SSW7.4 kmh SSW 6.9 mph11.1 kmh 30.16 in1021.3 mb - 0.00 in0.0 mm 0.00 in0.0 mm
06:20 AM 55.6°F13.1°C 51.8°F11.0°C 87% 3.5 mph SSW5.6 kmh SSW 3.5 mph5.6 kmh 30.17 in1021.7 mb - 0.00 in0.0 mm 0.00 in0.0 mm
06:30 AM 56.3°F13.5°C 52.1°F11.2°C 86% 3.5 mph S5.6 kmh S 5.8 mph9.3 kmh 30.18 in1022.0 mb - 0.00 in0.0 mm 0.00 in0.0 mm
06:40 AM 57.1°F13.9°C 52.9°F11.6°C 86% 4.6 mph S7.4 kmh S 6.9 mph11.1 kmh 30.18 in1022.0 mb - 0.00 in0.0 mm 0.00 in0.0 mm
06:50 AM 57.9°F14.4°C 53.5°F11.9°C 85% 3.5 mph S5.6 kmh S 9.2 mph14.8 kmh 30.19 in1022.4 mb - 0.00 in0.0 mm 0.00 in0.0 mm
07:00 AM 58.9°F14.9°C 54.1°F12.3°C 84% 4.6 mph S7.4 kmh S 6.9 mph11.1 kmh 30.19 in1022.4 mb - 0.00 in0.0 mm 0.00 in0.0 mm
07:10 AM 60.0°F15.6°C 54.8°F12.7°C 83% 4.6 mph SSW7.4 kmh SSW 5.8 mph9.3 kmh 30.20 in1022.7 mb - 0.00 in0.0 mm 0.00 in0.0 mm
07:20 AM 61.1°F16.2°C 54.8°F12.7°C 80% 3.5 mph SSW5.6 kmh SSW 6.9 mph11.1 kmh 30.20 in1022.7 mb - 0.00 in0.0 mm 0.00 in0.0 mm
07:30 AM 62.1°F16.7°C 55.2°F12.9°C 78% 3.5 mph S5.6 kmh S 4.6 mph7.4 kmh 30.20 in1022.7 mb - 0.00 in0.0 mm 0.00 in0.0 mm
07:40 AM 63.3°F17.4°C 56.0°F13.3°C 77% 3.5 mph S5.6 kmh S 8.1 mph13.0 kmh 30.21 in1023.0 mb - 0.00 in0.0 mm 0.00 in0.0 mm
07:50 AM 64.5°F18.1°C 56.0°F13.3°C 74% 4.6 mph SSW7.4 kmh SSW 8.1 mph13.0 kmh 30.21 in1023.0 mb - 0.00 in0.0 mm 0.00 in0.0 mm
08:00 AM 65.6°F18.7°C 55.9°F13.3°C 71% 6.9 mph S11.1 kmh S 8.1 mph13.0 kmh 30.21 in1023.0 mb - 0.00 in0.0 mm 0.00 in0.0 mm
08:10 AM 66.7°F19.3°C 56.2°F13.4°C 69% 5.8 mph S9.3 kmh S 11.5 mph18.5 kmh 30.22 in1023.4 mb - 0.00 in0.0 mm 0.00 in0.0 mm
08:20 AM 67.6°F19.8°C 55.9°F13.3°C 66% 3.5 mph SW5.6 kmh SW 6.9 mph11.1 kmh 30.22 in1023.4 mb - 0.00 in0.0 mm 0.00 in0.0 mm
08:30 AM 68.8°F20.4°C 55.7°F13.2°C 63% 8.1 mph S13.0 kmh S 9.2 mph14.8 kmh 30.22 in1023.4 mb - 0.00 in0.0 mm 0.00 in0.0 mm
08:40 AM 69.8°F21.0°C 55.3°F12.9°C 60% 6.9 mph S11.1 kmh S 10.4 mph16.7 kmh 30.22 in1023.4 mb - 0.00 in0.0 mm 0.00 in0.0 mm
08:50 AM 70.9°F21.6°C 55.4°F13.0°C 58% 5.8 mph S9.3 kmh S 10.4 mph16.7 kmh 30.22 in1023.4 mb - 0.00 in0.0 mm 0.00 in0.0 mm
09:00 AM 71.9°F22.2°C 54.9°F12.7°C 55% 4.6 mph SE7.4 kmh SE 9.2 mph14.8 kmh 30.22 in1023.4 mb - 0.00 in0.0 mm 0.00 in0.0 mm
09:10 AM 72.8°F22.7°C 54.1°F12.3°C 52% 5.8 mph SSE9.3 kmh SSE 6.9 mph11.1 kmh 30.22 in1023.4 mb - 0.00 in0.0 mm 0.00 in0.0 mm
09:20 AM 73.4°F23.0°C 54.2°F12.3°C 51% 6.9 mph S11.1 kmh S 9.2 mph14.8 kmh 30.22 in1023.4 mb - 0.00 in0.0 mm 0.00 in0.0 mm
09:30 AM 73.8°F23.2°C 54.0°F12.2°C 50% 5.8 mph S9.3 kmh S 8.1 mph13.0 kmh 30.22 in1023.4 mb - 0.00 in0.0 mm 0.00 in0.0 mm
09:40 AM 74.4°F23.6°C 53.4°F11.9°C 48% 5.8 mph S9.3 kmh S 9.2 mph14.8 kmh 30.22 in1023.4 mb - 0.00 in0.0 mm 0.00 in0.0 mm
09:50 AM 74.2°F23.4°C 52.7°F11.5°C 47% 4.6 mph S7.4 kmh S 6.9 mph11.1 kmh 30.22 in1023.4 mb - 0.00 in0.0 mm 0.00 in0.0 mm
10:00 AM 75.2°F24.0°C 53.0°F11.7°C 46% 4.6 mph S7.4 kmh S 8.1 mph13.0 kmh 30.23 in1023.7 mb - 0.00 in0.0 mm 0.00 in0.0 mm
10:10 AM 75.7°F24.3°C 52.9°F11.6°C 45% 6.9 mph SSW11.1 kmh SSW 9.2 mph14.8 kmh 30.22 in1023.4 mb - 0.00 in0.0 mm 0.00 in0.0 mm
10:20 AM 75.5°F24.2°C 51.4°F10.8°C 43% 2.3 mph SSE3.7 kmh SSE 3.5 mph5.6 kmh 30.23 in1023.7 mb - 0.00 in0.0 mm 0.00 in0.0 mm
10:30 AM 76.1°F24.5°C 53.2°F11.8°C 45% 6.9 mph S11.1 kmh S 8.1 mph13.0 kmh 30.22 in1023.4 mb - 0.00 in0.0 mm 0.00 in0.0 mm
10:40 AM 77.1°F25.1°C 53.5°F11.9°C 44% 3.5 mph SE5.6 kmh SE 8.1 mph13.0 kmh 30.23 in1023.7 mb - 0.00 in0.0 mm 0.00 in0.0 mm
10:50 AM 77.8°F25.4°C 52.9°F11.6°C 42% 4.6 mph SSE7.4 kmh SSE 9.2 mph14.8 kmh 30.23 in1023.7 mb - 0.00 in0.0 mm 0.00 in0.0 mm
11:00 AM 78.6°F25.9°C 52.3°F11.3°C 40% 3.5 mph E5.6 kmh E 3.5 mph5.6 kmh 30.23 in1023.7 mb - 0.00 in0.0 mm 0.00 in0.0 mm
11:10 AM 79.5°F26.4°C 53.8°F12.1°C 41% 1.2 mph S1.9 kmh S 9.2 mph14.8 kmh 30.22 in1023.4 mb - 0.00 in0.0 mm 0.00 in0.0 mm
11:20 AM 80.3°F26.8°C 51.7°F10.9°C 37% 5.8 mph SW9.3 kmh SW 6.9 mph11.1 kmh 30.23 in1023.7 mb - 0.00 in0.0 mm 0.00 in0.0 mm
11:30 AM 80.4°F26.9°C 52.5°F11.4°C 38% 5.8 mph SSW9.3 kmh SSW 11.5 mph18.5 kmh 30.22 in1023.4 mb - 0.00 in0.0 mm 0.00 in0.0 mm
11:40 AM 80.9°F27.2°C 52.9°F11.6°C 38% 3.5 mph SSW5.6 kmh SSW 3.5 mph5.6 kmh 30.23 in1023.7 mb - 0.00 in0.0 mm 0.00 in0.0 mm
11:50 AM 81.4°F27.4°C 51.9°F11.1°C 36% 3.5 mph E5.6 kmh E 5.8 mph9.3 kmh 30.23 in1023.7 mb - 0.00 in0.0 mm 0.00 in0.0 mm
12:00 PM 81.6°F27.6°C 51.3°F10.7°C 35% 3.5 mph ESE5.6 kmh ESE 8.1 mph13.0 kmh 30.23 in1023.7 mb - 0.00 in0.0 mm 0.00 in0.0 mm
12:10 PM 81.3°F27.4°C 55.3°F12.9°C 41% 8.1 mph NE13.0 kmh NE 10.4 mph16.7 kmh 30.23 in1023.7 mb - 0.00 in0.0 mm 0.00 in0.0 mm
12:20 PM 79.6°F26.4°C 55.2°F12.9°C 43% 5.8 mph ENE9.3 kmh ENE 8.1 mph13.0 kmh 30.23 in1023.7 mb - 0.00 in0.0 mm 0.00 in0.0 mm
12:30 PM 78.7°F25.9°C 55.6°F13.1°C 45% 6.9 mph NE11.1 kmh NE 10.4 mph16.7 kmh 30.23 in1023.7 mb - 0.00 in0.0 mm 0.00 in0.0 mm
12:40 PM 77.3°F25.2°C 54.9°F12.7°C 46% 8.1 mph NE13.0 kmh NE 10.4 mph16.7 kmh 30.23 in1023.7 mb - 0.00 in0.0 mm 0.00 in0.0 mm
12:50 PM 76.2°F24.6°C 55.1°F12.8°C 48% 8.1 mph ENE13.0 kmh ENE 12.7 mph20.4 kmh 30.23 in1023.7 mb - 0.00 in0.0 mm 0.00 in0.0 mm
01:00 PM 75.8°F24.3°C 55.3°F12.9°C 49% 6.9 mph NE11.1 kmh NE 15.0 mph24.1 kmh 30.23 in1023.7 mb - 0.00 in0.0 mm 0.00 in0.0 mm
01:10 PM 76.1°F24.5°C 55.5°F13.1°C 49% 5.8 mph E9.3 kmh E 11.5 mph18.5 kmh 30.23 in1023.7 mb - 0.00 in0.0 mm 0.00 in0.0 mm
01:20 PM 76.4°F24.7°C 54.7°F12.6°C 47% 6.9 mph ENE11.1 kmh ENE 10.4 mph16.7 kmh 30.23 in1023.7 mb - 0.00 in0.0 mm 0.00 in0.0 mm
01:30 PM 76.5°F24.7°C 54.8°F12.7°C 47% 10.4 mph NE16.7 kmh NE 16.1 mph25.9 kmh 30.23 in1023.7 mb - 0.00 in0.0 mm 0.00 in0.0 mm
01:40 PM 76.2°F24.6°C 54.5°F12.5°C 47% 8.1 mph NE13.0 kmh NE 12.7 mph20.4 kmh 30.23 in1023.7 mb - 0.00 in0.0 mm 0.00 in0.0 mm
01:50 PM 76.0°F24.4°C 54.9°F12.7°C 48% 6.9 mph ENE11.1 kmh ENE 12.7 mph20.4 kmh 30.23 in1023.7 mb - 0.00 in0.0 mm 0.00 in0.0 mm
02:00 PM 76.0°F24.4°C 54.3°F12.4°C 47% 5.8 mph ENE9.3 kmh ENE 13.8 mph22.2 kmh 30.22 in1023.4 mb - 0.00 in0.0 mm 0.00 in0.0 mm
02:10 PM 75.7°F24.3°C 54.6°F12.6°C 48% 10.4 mph ENE16.7 kmh ENE 13.8 mph22.2 kmh 30.23 in1023.7 mb - 0.00 in0.0 mm 0.00 in0.0 mm
02:20 PM 75.5°F24.2°C 53.9°F12.2°C 47% 8.1 mph ENE13.0 kmh ENE 11.5 mph18.5 kmh 30.22 in1023.4 mb - 0.00 in0.0 mm 0.00 in0.0 mm
02:30 PM 75.4°F24.1°C 53.8°F12.1°C 47% 8.1 mph NE13.0 kmh NE 11.5 mph18.5 kmh 30.23 in1023.7 mb - 0.00 in0.0 mm 0.00 in0.0 mm
02:40 PM 75.1°F23.9°C 53.5°F11.9°C 47% 9.2 mph ENE14.8 kmh ENE 16.1 mph25.9 kmh 30.23 in1023.7 mb - 0.00 in0.0 mm 0.00 in0.0 mm
02:50 PM 75.0°F23.9°C 54.0°F12.2°C 48% 6.9 mph E11.1 kmh E 11.5 mph18.5 kmh 30.22 in1023.4 mb - 0.00 in0.0 mm 0.00 in0.0 mm
03:00 PM 75.2°F24.0°C 53.0°F11.7°C 46% 11.5 mph ENE18.5 kmh ENE 11.5 mph18.5 kmh 30.22 in1023.4 mb - 0.00 in0.0 mm 0.00 in0.0 mm
03:10 PM 75.2°F24.0°C 53.6°F12.0°C 47% 6.9 mph E11.1 kmh E 9.2 mph14.8 kmh 30.22 in1023.4 mb - 0.00 in0.0 mm 0.00 in0.0 mm
03:20 PM 74.8°F23.8°C 53.8°F12.1°C 48% 9.2 mph ENE14.8 kmh ENE 13.8 mph22.2 kmh 30.22 in1023.4 mb - 0.00 in0.0 mm 0.00 in0.0 mm
03:30 PM 74.7°F23.7°C 53.7°F12.1°C 48% 8.1 mph ENE13.0 kmh ENE 17.3 mph27.8 kmh 30.22 in1023.4 mb - 0.00 in0.0 mm 0.00 in0.0 mm
03:40 PM 74.4°F23.6°C 53.4°F11.9°C 48% 5.8 mph E9.3 kmh E 13.8 mph22.2 kmh 30.22 in1023.4 mb - 0.00 in0.0 mm 0.00 in0.0 mm
03:50 PM 74.0°F23.3°C 53.1°F11.7°C 48% 9.2 mph ENE14.8 kmh ENE 13.8 mph22.2 kmh 30.21 in1023.0 mb - 0.00 in0.0 mm 0.00 in0.0 mm
04:00 PM 73.6°F23.1°C 52.7°F11.5°C 48% 8.1 mph E13.0 kmh E 11.5 mph18.5 kmh 30.21 in1023.0 mb - 0.00 in0.0 mm 0.00 in0.0 mm
04:10 PM 73.0°F22.8°C 52.7°F11.5°C 49% 9.2 mph E14.8 kmh E 11.5 mph18.5 kmh 30.21 in1023.0 mb - 0.00 in0.0 mm 0.00 in0.0 mm
04:20 PM 72.6°F22.6°C 52.3°F11.3°C 49% 5.8 mph E9.3 kmh E 11.5 mph18.5 kmh 30.21 in1023.0 mb - 0.00 in0.0 mm 0.00 in0.0 mm
04:30 PM 72.1°F22.3°C 53.0°F11.7°C 51% 5.8 mph E9.3 kmh E 11.5 mph18.5 kmh 30.21 in1023.0 mb - 0.00 in0.0 mm 0.00 in0.0 mm
04:40 PM 71.7°F22.1°C 52.6°F11.4°C 51% 6.9 mph E11.1 kmh E 12.7 mph20.4 kmh 30.21 in1023.0 mb - 0.00 in0.0 mm 0.00 in0.0 mm
04:50 PM 71.3°F21.8°C 52.8°F11.6°C 52% 6.9 mph E11.1 kmh E 9.2 mph14.8 kmh 30.21 in1023.0 mb - 0.00 in0.0 mm 0.00 in0.0 mm
05:00 PM 71.0°F21.7°C 52.5°F11.4°C 52% 8.1 mph ENE13.0 kmh ENE 11.5 mph18.5 kmh 30.21 in1023.0 mb - 0.00 in0.0 mm 0.00 in0.0 mm
05:10 PM 70.6°F21.4°C 52.6°F11.4°C 53% 5.8 mph E9.3 kmh E 11.5 mph18.5 kmh 30.21 in1023.0 mb - 0.00 in0.0 mm 0.00 in0.0 mm
05:20 PM 70.3°F21.3°C 53.4°F11.9°C 55% 8.1 mph E13.0 kmh E 9.2 mph14.8 kmh 30.21 in1023.0 mb - 0.00 in0.0 mm 0.00 in0.0 mm
05:30 PM 69.9°F21.1°C 53.0°F11.7°C 55% 4.6 mph E7.4 kmh E 10.4 mph16.7 kmh 30.21 in1023.0 mb - 0.00 in0.0 mm 0.00 in0.0 mm
05:40 PM 69.3°F20.7°C 52.9°F11.6°C 56% 5.8 mph ENE9.3 kmh ENE 11.5 mph18.5 kmh 30.22 in1023.4 mb - 0.00 in0.0 mm 0.00 in0.0 mm
05:50 PM 68.8°F20.4°C 52.9°F11.6°C 57% 4.6 mph E7.4 kmh E 8.1 mph13.0 kmh 30.21 in1023.0 mb - 0.00 in0.0 mm 0.00 in0.0 mm
06:00 PM 68.5°F20.3°C 52.7°F11.5°C 57% 6.9 mph E11.1 kmh E 9.2 mph14.8 kmh 30.22 in1023.4 mb - 0.00 in0.0 mm 0.00 in0.0 mm
06:10 PM 68.3°F20.2°C 53.4°F11.9°C 59% 5.8 mph E9.3 kmh E 11.5 mph18.5 kmh 30.22 in1023.4 mb - 0.00 in0.0 mm 0.00 in0.0 mm
06:20 PM 67.9°F19.9°C 53.5°F11.9°C 60% 5.8 mph ENE9.3 kmh ENE 11.5 mph18.5 kmh 30.22 in1023.4 mb - 0.00 in0.0 mm 0.00 in0.0 mm
06:30 PM 67.6°F19.8°C 53.7°F12.1°C 61% 8.1 mph E13.0 kmh E 10.4 mph16.7 kmh 30.22 in1023.4 mb - 0.00 in0.0 mm 0.00 in0.0 mm
06:40 PM 67.2°F19.6°C 53.7°F12.1°C 62% 9.2 mph ENE14.8 kmh ENE 11.5 mph18.5 kmh 30.22 in1023.4 mb - 0.00 in0.0 mm 0.00 in0.0 mm
06:50 PM 66.7°F19.3°C 54.1°F12.3°C 64% 4.6 mph E7.4 kmh E 6.9 mph11.1 kmh 30.22 in1023.4 mb - 0.00 in0.0 mm 0.00 in0.0 mm
07:00 PM 66.4°F19.1°C 53.8°F12.1°C 64% 6.9 mph ENE11.1 kmh ENE 11.5 mph18.5 kmh 30.23 in1023.7 mb - 0.00 in0.0 mm 0.00 in0.0 mm
07:10 PM 65.9°F18.8°C 53.8°F12.1°C 65% 5.8 mph E9.3 kmh E 11.5 mph18.5 kmh 30.24 in1024.0 mb - 0.00 in0.0 mm 0.00 in0.0 mm
07:20 PM 65.5°F18.6°C 53.8°F12.1°C 66% 8.1 mph E13.0 kmh E 10.4 mph16.7 kmh 30.23 in1023.7 mb - 0.00 in0.0 mm 0.00 in0.0 mm
07:30 PM 65.2°F18.4°C 54.0°F12.2°C 67% 4.6 mph ENE7.4 kmh ENE 5.8 mph9.3 kmh 30.24 in1024.0 mb - 0.00 in0.0 mm 0.00 in0.0 mm
07:40 PM 64.9°F18.3°C 53.7°F12.1°C 67% 5.8 mph E9.3 kmh E 8.1 mph13.0 kmh 30.24 in1024.0 mb - 0.00 in0.0 mm 0.00 in0.0 mm
07:50 PM 64.5°F18.1°C 53.7°F12.1°C 68% 3.5 mph ENE5.6 kmh ENE 6.9 mph11.1 kmh 30.24 in1024.0 mb - 0.00 in0.0 mm 0.00 in0.0 mm
08:00 PM 64.3°F17.9°C 53.5°F11.9°C 68% 2.3 mph ENE3.7 kmh ENE 3.5 mph5.6 kmh 30.24 in1024.0 mb - 0.00 in0.0 mm 0.00 in0.0 mm
08:10 PM 64.0°F17.8°C 53.6°F12.0°C 69% 3.5 mph NE5.6 kmh NE 3.5 mph5.6 kmh 30.24 in1024.0 mb - 0.00 in0.0 mm 0.00 in0.0 mm
08:20 PM 63.7°F17.6°C 53.4°F11.9°C 69% 4.6 mph ENE7.4 kmh ENE 9.2 mph14.8 kmh 30.25 in1024.4 mb - 0.00 in0.0 mm 0.00 in0.0 mm
08:30 PM 63.5°F17.5°C 53.5°F11.9°C 70% 5.8 mph E9.3 kmh E 9.2 mph14.8 kmh 30.25 in1024.4 mb - 0.00 in0.0 mm 0.00 in0.0 mm
08:40 PM 63.3°F17.4°C 53.3°F11.8°C 70% 3.5 mph ENE5.6 kmh ENE 11.5 mph18.5 kmh 30.25 in1024.4 mb - 0.00 in0.0 mm 0.00 in0.0 mm
08:50 PM 63.2°F17.3°C 53.6°F12.0°C 71% 1.2 mph ENE1.9 kmh ENE 3.5 mph5.6 kmh 30.25 in1024.4 mb - 0.00 in0.0 mm 0.00 in0.0 mm
09:00 PM 63.0°F17.2°C 53.5°F11.9°C 71% 4.6 mph ESE7.4 kmh ESE 5.8 mph9.3 kmh 30.25 in1024.4 mb - 0.00 in0.0 mm 0.00 in0.0 mm
09:10 PM 63.0°F17.2°C 53.8°F12.1°C 72% 4.6 mph E7.4 kmh E 6.9 mph11.1 kmh 30.25 in1024.4 mb - 0.00 in0.0 mm 0.00 in0.0 mm
09:20 PM 62.9°F17.2°C 53.7°F12.1°C 72% 3.5 mph E5.6 kmh E 6.9 mph11.1 kmh 30.25 in1024.4 mb - 0.00 in0.0 mm 0.00 in0.0 mm
09:30 PM 62.8°F17.1°C 53.7°F12.1°C 72% 2.3 mph NE3.7 kmh NE 3.5 mph5.6 kmh 30.26 in1024.7 mb - 0.00 in0.0 mm 0.00 in0.0 mm
09:40 PM 62.7°F17.1°C 53.9°F12.2°C 73% 2.3 mph E3.7 kmh E 3.5 mph5.6 kmh 30.26 in1024.7 mb - 0.00 in0.0 mm 0.00 in0.0 mm
09:50 PM 62.6°F17.0°C 53.8°F12.1°C 73% 2.3 mph E3.7 kmh E 2.3 mph3.7 kmh 30.26 in1024.7 mb - 0.00 in0.0 mm 0.00 in0.0 mm
10:00 PM 62.4°F16.9°C 53.6°F12.0°C 73% 1.2 mph E1.9 kmh E 3.5 mph5.6 kmh 30.26 in1024.7 mb - 0.00 in0.0 mm 0.00 in0.0 mm
10:10 PM 62.3°F16.8°C 53.5°F11.9°C 73% 2.3 mph ENE3.7 kmh ENE 3.5 mph5.6 kmh 30.26 in1024.7 mb - 0.00 in0.0 mm 0.00 in0.0 mm
10:20 PM 62.0°F16.7°C 53.2°F11.8°C 73% 1.2 mph E1.9 kmh E 2.3 mph3.7 kmh 30.26 in1024.7 mb - 0.00 in0.0 mm 0.00 in0.0 mm
10:30 PM 61.7°F16.5°C 53.0°F11.7°C 73% 2.3 mph E3.7 kmh E 3.5 mph5.6 kmh 30.25 in1024.4 mb - 0.00 in0.0 mm 0.00 in0.0 mm
10:40 PM 61.5°F16.4°C 52.8°F11.6°C 73% 1.2 mph E1.9 kmh E 2.3 mph3.7 kmh 30.25 in1024.4 mb - 0.00 in0.0 mm 0.00 in0.0 mm
10:50 PM 61.3°F16.3°C 52.6°F11.4°C 73% 2.3 mph E3.7 kmh E 3.5 mph5.6 kmh 30.25 in1024.4 mb - 0.00 in0.0 mm 0.00 in0.0 mm
11:00 PM 61.2°F16.2°C 52.5°F11.4°C 73% 1.2 mph E1.9 kmh E 2.3 mph3.7 kmh 30.25 in1024.4 mb - 0.00 in0.0 mm 0.00 in0.0 mm
11:10 PM 61.1°F16.2°C 52.7°F11.5°C 74% 2.3 mph SE3.7 kmh SE 3.5 mph5.6 kmh 30.26 in1024.7 mb - 0.00 in0.0 mm 0.00 in0.0 mm
11:20 PM 61.0°F16.1°C 52.7°F11.5°C 74% Calm Calm -- 30.26 in1024.7 mb - 0.00 in0.0 mm 0.00 in0.0 mm
11:30 PM 60.9°F16.1°C 52.6°F11.4°C 74% 1.2 mph SE1.9 kmh SE 3.5 mph5.6 kmh 30.26 in1024.7 mb - 0.00 in0.0 mm 0.00 in0.0 mm
11:40 PM 60.7°F15.9°C 52.4°F11.3°C 74% 1.2 mph SE1.9 kmh SE 2.3 mph3.7 kmh 30.26 in1024.7 mb - 0.00 in0.0 mm 0.00 in0.0 mm
11:50 PM 60.5°F15.8°C 52.2°F11.2°C 74% Calm Calm 1.2 mph1.9 kmh 30.26 in1024.7 mb - 0.00 in0.0 mm 0.00 in0.0 mm